Time;durP1;ratioP1;P1;durP2;ratioP2;P2;SDS_P1;SDS_P2;PMS_P1;PMS_P2;Temp;Humidity;BMP_temperature;BMP_pressure;BME280_temperature;BME280_humidity;BME280_pressure;Samples;Min_cycle;Max_cycle;Signal;HPM_P1;HPM_P2
2023/01/11 00:00:46;;;;;;;9.40;1.90;;;;;;;7.80;100.00;97747.03;5154399;27;20053;-86
2023/01/11 00:03:13;;;;;;;7.88;1.67;;;;;;;7.79;100.00;97766.19;5156631;27;20051;-86
2023/01/11 00:05:41;;;;;;;4.63;1.60;;;;;;;7.86;100.00;97780.47;5156351;27;20433;-86
2023/01/11 00:08:09;;;;;;;10.20;1.67;;;;;;;7.91;100.00;97793.94;5156573;27;20042;-86
2023/01/11 00:10:35;;;;;;;8.52;1.85;;;;;;;7.79;100.00;97800.06;5127241;27;20054;-85
2023/01/11 00:13:02;;;;;;;11.50;1.73;;;;;;;7.64;100.00;97806.41;5123557;27;20047;-86
2023/01/11 00:15:30;;;;;;;10.07;2.17;;;;;;;7.78;100.00;97803.63;5152096;27;20047;-86
2023/01/11 00:17:56;;;;;;;8.15;2.75;;;;;;;7.68;100.00;97813.88;5127078;27;20103;-85
2023/01/11 00:20:24;;;;;;;9.50;2.20;;;;;;;7.78;100.00;97829.69;5117334;27;20067;-86
2023/01/11 00:22:51;;;;;;;8.70;2.00;;;;;;;7.70;100.00;97832.00;5136551;27;20050;-86
2023/01/11 00:25:18;;;;;;;9.48;1.95;;;;;;;7.76;100.00;97845.41;5135115;27;20480;-86
2023/01/11 00:27:46;;;;;;;6.68;1.77;;;;;;;7.79;100.00;97854.75;5126612;27;20054;-86
2023/01/11 00:30:13;;;;;;;9.07;1.80;;;;;;;7.83;100.00;97874.47;5128306;27;20051;-86
2023/01/11 00:32:40;;;;;;;7.75;2.25;;;;;;;7.77;100.00;97851.44;5136787;27;20403;-85
2023/01/11 00:35:07;;;;;;;8.27;2.17;;;;;;;7.68;100.00;97880.75;5155892;27;20053;-86
2023/01/11 00:37:34;;;;;;;17.77;2.70;;;;;;;7.72;100.00;97870.03;5154948;27;20053;-86
2023/01/11 00:40:01;;;;;;;8.85;2.33;;;;;;;7.75;100.00;97864.56;5155412;27;20476;-86
2023/01/11 00:47:59;;;;;;;10.50;2.97;;;;;;;7.73;100.00;97881.25;5143275;27;20043;-86
2023/01/11 00:50:30;;;;;;;9.20;2.03;;;;;;;7.73;100.00;97879.47;5133487;27;20594;-86
2023/01/11 00:52:58;;;;;;;11.27;2.13;;;;;;;7.66;100.00;97877.44;5137541;27;20856;-86
2023/01/11 00:55:25;;;;;;;9.52;1.92;;;;;;;7.63;100.00;97870.66;5134126;27;20051;-86
2023/01/11 00:57:52;;;;;;;12.32;2.20;;;;;;;7.61;100.00;97901.19;5137532;27;20050;-86
2023/01/11 01:00:21;;;;;;;9.55;2.50;;;;;;;7.46;100.00;97917.91;5127190;27;20047;-86
2023/01/11 01:02:48;;;;;;;9.07;1.83;;;;;;;7.35;100.00;97913.44;5132312;27;20597;-86
2023/01/11 01:05:16;;;;;;;8.30;2.10;;;;;;;7.23;100.00;97910.72;5116032;27;20047;-86
2023/01/11 01:07:44;;;;;;;12.55;2.03;;;;;;;7.23;100.00;97926.34;5152395;27;20053;-86
2023/01/11 01:10:14;;;;;;;9.07;1.48;;;;;;;7.28;100.00;97922.59;5115778;27;20050;-86
2023/01/11 01:15:32;;;;;;;7.28;1.92;;;;;;;7.26;100.00;97940.94;5122942;27;20057;-86
2023/01/11 01:17:59;;;;;;;10.02;1.92;;;;;;;7.27;100.00;97957.38;5136820;27;20468;-86
2023/01/11 01:20:25;;;;;;;9.82;2.60;;;;;;;7.14;100.00;97942.59;5141573;27;20396;-86
2023/01/11 01:22:52;;;;;;;5.35;1.55;;;;;;;7.23;100.00;97956.75;5136124;27;20491;-86
2023/01/11 01:25:19;;;;;;;9.73;1.95;;;;;;;7.07;100.00;97951.75;5151203;27;20495;-86
2023/01/11 01:27:46;;;;;;;7.53;1.88;;;;;;;7.09;100.00;97954.25;5136461;27;20054;-86
2023/01/11 01:30:13;;;;;;;6.40;1.60;;;;;;;7.01;100.00;97945.22;5131656;27;20712;-87
2023/01/11 01:32:40;;;;;;;11.57;2.25;;;;;;;6.96;100.00;97962.88;5133438;27;20069;-87
2023/01/11 01:35:07;;;;;;;9.38;2.22;;;;;;;6.83;100.00;97965.50;5154520;27;21322;-87
2023/01/11 01:37:34;;;;;;;8.82;2.28;;;;;;;6.66;100.00;97952.75;5136772;27;20046;-86
2023/01/11 01:40:01;;;;;;;9.68;2.17;;;;;;;6.71;100.00;97958.50;5135856;27;20051;-86
2023/01/11 01:42:27;;;;;;;8.60;2.40;;;;;;;6.88;100.00;97959.97;5153943;27;20066;-86
2023/01/11 01:45:02;;;;;;;11.63;1.90;;;;;;;7.04;100.00;97971.00;5132770;27;20043;-87
2023/01/11 01:47:46;;;;;;;12.13;2.03;;;;;;;6.78;100.00;97967.56;5124468;27;20043;-86
2023/01/11 01:50:21;;;;;;;13.27;2.08;;;;;;;6.92;100.00;97971.00;5154899;27;20652;-87
2023/01/11 01:52:52;;;;;;;10.15;2.13;;;;;;;6.65;100.00;97954.50;5135259;27;20882;-86
2023/01/11 01:55:25;;;;;;;10.05;1.85;;;;;;;6.64;100.00;97952.03;5153541;27;20051;-86
2023/01/11 01:57:53;;;;;;;10.48;2.03;;;;;;;6.46;100.00;97931.50;5154421;27;20396;-86
2023/01/11 02:00:20;;;;;;;12.75;2.67;;;;;;;6.62;100.00;98003.28;5153851;27;20054;-87
2023/01/11 02:02:48;;;;;;;10.27;1.98;;;;;;;6.43;100.00;97980.25;5133653;27;20047;-87
2023/01/11 02:05:16;;;;;;;9.30;2.05;;;;;;;6.45;100.00;97981.81;5154948;27;20058;-86
2023/01/11 02:07:45;;;;;;;14.02;2.45;;;;;;;6.47;100.00;97998.13;5135895;27;20408;-86
2023/01/11 02:10:18;;;;;;;7.20;2.00;;;;;;;6.56;100.00;98009.72;5121194;27;20719;-86
2023/01/11 02:12:55;;;;;;;9.85;2.30;;;;;;;6.42;100.00;98021.00;5132970;27;20070;-87
2023/01/11 02:15:23;;;;;;;8.07;1.95;;;;;;;6.30;100.00;98016.56;5135986;27;20430;-86
2023/01/11 02:17:50;;;;;;;10.38;2.20;;;;;;;6.49;100.00;98028.41;5122472;27;20047;-86
2023/01/11 02:20:46;;;;;;;10.95;2.00;;;;;;;6.33;100.00;98006.00;5152555;27;20144;-86
2023/01/11 02:23:35;;;;;;;11.52;2.10;;;;;;;6.41;100.00;98015.88;5148466;27;20073;-86
2023/01/11 02:26:28;;;;;;;14.45;2.30;;;;;;;6.55;100.00;98031.47;5125100;27;20070;-87
2023/01/11 02:29:14;;;;;;;12.13;2.50;;;;;;;6.38;100.00;98037.72;5089356;27;20042;-87
2023/01/11 02:31:54;;;;;;;8.77;2.35;;;;;;;6.49;100.00;98044.84;5153238;27;20403;-87
2023/01/11 02:34:43;;;;;;;8.63;2.33;;;;;;;6.47;100.00;98038.91;5135767;27;20042;-86
2023/01/11 02:37:24;;;;;;;13.25;2.53;;;;;;;6.55;100.00;98048.81;5120726;27;20399;-87
2023/01/11 02:40:12;;;;;;;11.77;2.58;;;;;;;6.63;100.00;98055.19;5135389;27;20055;-86
2023/01/11 02:46:00;;;;;;;10.20;1.98;;;;;;;6.70;100.00;98041.81;5143367;27;20046;-87
2023/01/11 02:48:38;;;;;;;14.35;2.53;;;;;;;6.52;100.00;98049.03;5153793;27;20155;-87
2023/01/11 02:51:11;;;;;;;9.27;1.95;;;;;;;6.54;100.00;98037.59;5129719;27;20047;-86
2023/01/11 02:53:41;;;;;;;10.60;2.45;;;;;;;6.66;100.00;98046.38;5121399;27;20050;-87
2023/01/11 02:56:17;;;;;;;9.07;2.10;;;;;;;6.48;100.00;98038.00;5113897;27;20051;-86
2023/01/11 02:58:47;;;;;;;10.32;1.80;;;;;;;6.63;100.00;98060.38;5146186;27;20043;-86
2023/01/11 03:01:14;;;;;;;8.15;1.58;;;;;;;6.53;100.00;98074.06;5132705;27;20043;-86
2023/01/11 03:03:40;;;;;;;7.93;2.05;;;;;;;6.47;100.00;98085.69;5153560;27;20043;-86
2023/01/11 03:06:14;;;;;;;6.15;1.92;;;;;;;6.47;100.00;98088.28;5134117;27;20042;-86
2023/01/11 03:08:56;;;;;;;10.52;3.03;;;;;;;6.36;100.00;98088.16;5135047;27;20062;-86
2023/01/11 03:15:16;;;;;;;13.60;2.45;;;;;;;6.32;100.00;98089.25;5049252;28;20049;-87
2023/01/11 03:18:04;;;;;;;11.93;2.27;;;;;;;6.32;100.00;98086.66;5032699;28;20045;-87
2023/01/11 03:20:36;;;;;;;15.13;2.95;;;;;;;6.17;100.00;98081.47;5128188;27;20042;-86
2023/01/11 03:23:05;;;;;;;12.98;3.13;;;;;;;6.17;100.00;98093.66;5119486;27;20054;-87
2023/01/11 03:25:56;;;;;;;8.13;2.78;;;;;;;6.17;100.00;98084.06;5144169;27;20582;-86
2023/01/11 03:28:29;;;;;;;16.33;2.17;;;;;;;6.22;100.00;98089.81;5107142;27;20100;-86
2023/01/11 03:31:21;;;;;;;9.10;2.10;;;;;;;6.27;100.00;98095.56;5127412;27;20072;-86
2023/01/11 03:34:01;;;;;;;6.50;2.15;;;;;;;6.31;100.00;98096.22;5139461;27;20099;-87
2023/01/11 03:37:05;;;;;;;8.98;1.80;;;;;;;6.34;100.00;98103.84;5135486;27;20340;-87
2023/01/11 03:39:36;;;;;;;9.85;3.47;;;;;;;6.21;100.00;98087.31;5086406;27;20051;-86
2023/01/11 03:42:06;;;;;;;9.00;2.83;;;;;;;6.24;100.00;98102.72;5129546;27;20043;-86
2023/01/11 03:44:45;;;;;;;9.57;1.63;;;;;;;5.92;100.00;98071.75;5150609;27;20043;-86
2023/01/11 03:47:15;;;;;;;11.93;1.90;;;;;;;5.94;100.00;98074.25;5152752;27;20043;-86
2023/01/11 03:49:50;;;;;;;6.88;2.08;;;;;;;6.01;100.00;98096.34;5138724;27;20046;-86
2023/01/11 03:52:24;;;;;;;10.10;1.80;;;;;;;6.02;100.00;98114.44;5137215;27;20046;-87
2023/01/11 03:54:53;;;;;;;12.00;2.33;;;;;;;5.92;100.00;98107.28;5157135;27;20468;-87
2023/01/11 03:57:24;;;;;;;10.63;1.90;;;;;;;5.94;100.00;98113.19;5134110;27;20495;-86
2023/01/11 03:59:51;;;;;;;8.20;2.17;;;;;;;5.81;100.00;98118.31;5138234;27;20045;-86
2023/01/11 04:02:25;;;;;;;7.72;1.70;;;;;;;5.88;100.00;98114.41;5155580;27;20046;-86
2023/01/11 04:04:52;;;;;;;7.32;1.73;;;;;;;6.09;100.00;98125.28;5138022;27;20082;-86
2023/01/11 04:07:19;;;;;;;6.78;1.85;;;;;;;6.12;100.00;98112.09;5138067;27;20380;-86
2023/01/11 04:09:46;;;;;;;10.30;2.00;;;;;;;5.69;100.00;98054.97;5117389;27;20043;-86
2023/01/11 04:12:13;;;;;;;7.25;1.98;;;;;;;5.55;100.00;98067.94;5131420;27;20054;-86
2023/01/11 04:14:39;;;;;;;9.77;1.88;;;;;;;5.66;100.00;98073.31;5156403;27;20050;-87
2023/01/11 04:17:06;;;;;;;5.18;1.52;;;;;;;5.83;100.00;98087.88;5156779;27;20049;-86
2023/01/11 04:19:33;;;;;;;6.38;1.65;;;;;;;5.85;100.00;98114.59;5141839;27;20074;-86
2023/01/11 04:21:59;;;;;;;7.68;2.58;;;;;;;5.88;100.00;98130.00;5136780;27;20476;-86
2023/01/11 04:24:26;;;;;;;7.22;1.75;;;;;;;5.79;100.00;98126.19;5156295;27;20675;-86
2023/01/11 04:26:53;;;;;;;8.00;1.83;;;;;;;5.83;100.00;98134.63;5131259;27;20050;-86
2023/01/11 04:29:20;;;;;;;7.78;1.60;;;;;;;5.83;100.00;98111.25;5148482;27;20038;-86
2023/01/11 04:31:46;;;;;;;8.95;1.73;;;;;;;5.86;100.00;98116.25;5123670;27;20047;-85
2023/01/11 04:34:13;;;;;;;7.65;1.52;;;;;;;5.76;100.00;98096.97;5125937;27;20134;-85
2023/01/11 04:36:40;;;;;;;5.32;1.65;;;;;;;5.83;100.00;98126.84;5137093;27;20046;-86
2023/01/11 04:39:09;;;;;;;7.05;1.40;;;;;;;5.72;100.00;98114.50;5133158;27;20083;-86
2023/01/11 04:44:23;;;;;;;5.97;1.55;;;;;;;5.95;100.00;98130.44;5155944;27;20057;-86
2023/01/11 04:46:50;;;;;;;5.75;1.50;;;;;;;5.73;100.00;98103.16;5136090;27;20058;-86
2023/01/11 04:49:16;;;;;;;4.93;1.50;;;;;;;5.60;100.00;98092.69;5156436;27;20047;-86
2023/01/11 04:51:43;;;;;;;4.28;1.30;;;;;;;5.93;100.00;98127.94;5135811;27;20043;-85
2023/01/11 04:54:10;;;;;;;4.65;1.30;;;;;;;5.86;100.00;98105.84;5134173;27;20045;-86
2023/01/11 04:56:37;;;;;;;4.25;1.40;;;;;;;5.78;100.00;98090.75;5137122;27;20463;-86
2023/01/11 04:59:03;;;;;;;6.50;1.50;;;;;;;5.97;100.00;98115.66;5122626;27;20433;-86
2023/01/11 05:01:30;;;;;;;7.43;1.55;;;;;;;5.83;100.00;98103.47;5136006;27;20050;-86
2023/01/11 05:03:57;;;;;;;5.75;1.25;;;;;;;5.45;100.00;98089.25;5136299;27;20510;-86
2023/01/11 05:06:24;;;;;;;8.48;1.60;;;;;;;5.59;100.00;98108.34;5128242;27;20400;-87
2023/01/11 05:08:51;;;;;;;5.32;1.20;;;;;;;5.54;100.00;98098.22;5121169;27;20052;-86
2023/01/11 05:11:18;;;;;;;6.15;1.48;;;;;;;5.52;100.00;98081.91;5141725;27;20396;-86
2023/01/11 05:13:45;;;;;;;4.15;1.35;;;;;;;5.65;100.00;98084.63;5138871;27;20062;-86
2023/01/11 05:16:12;;;;;;;4.78;1.40;;;;;;;5.72;100.00;98117.09;5122788;27;20436;-86
2023/01/11 05:18:45;;;;;;;5.93;1.50;;;;;;;5.31;100.00;98056.31;5137889;27;20406;-86
2023/01/11 05:21:12;;;;;;;;;;;;;;;5.72;100.00;98122.28;5135159;27;20047;-87
2023/01/11 05:23:40;;;;;;;8.13;1.60;;;;;;;5.60;100.00;98117.81;5136458;27;19927;-86
2023/01/11 05:26:09;;;;;;;7.00;1.63;;;;;;;5.61;100.00;98107.34;5136956;27;20053;-87
2023/01/11 05:28:36;;;;;;;6.75;1.90;;;;;;;5.44;100.00;98078.97;5136456;27;20047;-87
2023/01/11 05:31:03;;;;;;;8.77;1.60;;;;;;;5.51;100.00;98109.63;5133850;27;20100;-87
2023/01/11 05:33:30;;;;;;;4.50;1.30;;;;;;;5.40;100.00;98103.41;5128113;27;20058;-86
2023/01/11 05:35:59;;;;;;;4.78;1.30;;;;;;;5.40;100.00;98098.19;5116135;27;20515;-87
2023/01/11 05:38:27;;;;;;;5.38;1.83;;;;;;;5.40;100.00;98109.44;5154634;27;20049;-87
2023/01/11 05:40:58;;;;;;;2.55;1.10;;;;;;;5.47;100.00;98120.28;5131162;27;20377;-87
2023/01/11 05:43:26;;;;;;;5.32;1.52;;;;;;;5.42;100.00;98106.72;5130757;27;20058;-87
2023/01/11 05:45:53;;;;;;;4.75;1.40;;;;;;;5.27;100.00;98111.88;5121178;27;20042;-86
2023/01/11 05:48:20;;;;;;;4.68;1.20;;;;;;;5.57;100.00;98121.41;5140478;27;20503;-86
2023/01/11 05:50:54;;;;;;;4.25;1.15;;;;;;;5.41;100.00;98108.50;5134961;27;20162;-87
2023/01/11 05:53:23;;;;;;;5.47;1.50;;;;;;;5.29;100.00;98078.94;5118118;27;20404;-87
2023/01/11 05:55:55;;;;;;;4.25;1.33;;;;;;;5.31;100.00;98058.06;5133490;27;20050;-86
2023/01/11 05:58:24;;;;;;;5.00;1.25;;;;;;;5.53;100.00;98106.13;5127723;27;20050;-86
2023/01/11 06:00:53;;;;;;;4.63;1.38;;;;;;;5.32;100.00;98120.25;5145544;27;20054;-86
2023/01/11 06:03:22;;;;;;;9.27;2.65;;;;;;;5.53;100.00;98119.09;5154807;27;20520;-86
2023/01/11 06:05:49;;;;;;;4.97;1.98;;;;;;;5.68;100.00;98116.44;5150389;27;20047;-86
2023/01/11 06:08:16;;;;;;;4.03;1.40;;;;;;;5.61;100.00;98130.72;5135736;27;20046;-87
2023/01/11 06:10:49;;;;;;;6.43;1.40;;;;;;;5.50;100.00;98122.69;5134735;27;20043;-87
2023/01/11 06:13:28;;;;;;;4.47;1.63;;;;;;;5.35;100.00;98132.22;5135984;27;20047;-86
2023/01/11 06:16:00;;;;;;;6.45;1.35;;;;;;;5.33;100.00;98129.72;5136038;27;20038;-87
2023/01/11 06:18:29;;;;;;;7.93;1.90;;;;;;;5.52;100.00;98118.25;5135718;27;20054;-87
2023/01/11 06:20:56;;;;;;;5.18;1.40;;;;;;;5.49;100.00;98113.25;5134052;27;20047;-87
2023/01/11 06:23:24;;;;;;;8.48;2.10;;;;;;;5.67;100.00;98134.69;5132142;27;20039;-87
2023/01/11 06:25:50;;;;;;;6.88;1.48;;;;;;;5.45;100.00;98112.59;5120620;27;20047;-87
2023/01/11 06:28:17;;;;;;;10.23;1.60;;;;;;;5.53;100.00;98104.34;5133761;27;20428;-87
2023/01/11 06:30:51;;;;;;;3.92;1.15;;;;;;;5.40;100.00;98098.19;5131429;27;20046;-87
2023/01/11 06:33:21;;;;;;;7.07;1.55;;;;;;;5.44;100.00;98099.72;5131640;27;20043;-86
2023/01/11 06:35:49;;;;;;;6.90;2.20;;;;;;;5.44;100.00;98091.94;5129206;27;20051;-85
2023/01/11 06:38:18;;;;;;;6.30;1.42;;;;;;;5.52;100.00;98110.47;5131782;27;20050;-85
2023/01/11 06:40:57;;;;;;;4.70;1.30;;;;;;;5.56;100.00;98122.34;5131125;27;20034;-85
2023/01/11 06:43:24;;;;;;;6.93;1.63;;;;;;;5.49;100.00;98110.66;5131156;27;20518;-87
2023/01/11 06:45:51;;;;;;;7.65;2.15;;;;;;;5.53;100.00;98111.31;5145728;27;20051;-87
2023/01/11 06:48:20;;;;;;;7.25;1.77;;;;;;;5.56;100.00;98122.34;5143714;27;20054;-85
2023/01/11 06:50:48;;;;;;;4.90;1.50;;;;;;;5.65;100.00;98119.22;5127407;27;20051;-88
2023/01/11 06:53:15;;;;;;;4.88;1.42;;;;;;;5.47;100.00;98095.19;5139426;27;20062;-86
2023/01/11 06:55:42;;;;;;;3.05;1.58;;;;;;;5.17;100.00;98045.94;5128403;27;20054;-86
2023/01/11 06:58:12;;;;;;;5.47;1.30;;;;;;;5.29;100.00;98059.91;5119141;27;20047;-88
2023/01/11 07:00:39;;;;;;;2.80;1.15;;;;;;;5.29;100.00;98068.56;5133158;27;20155;-89
2023/01/11 07:03:06;;;;;;;2.97;1.05;;;;;;;5.24;100.00;98077.50;5127430;27;20057;-89
2023/01/11 07:05:35;;;;;;;5.72;1.45;;;;;;;5.42;100.00;98080.78;5134086;27;20050;-89
2023/01/11 07:08:02;;;;;;;3.42;1.23;;;;;;;5.69;100.00;98114.66;5143923;27;20054;-88
2023/01/11 07:10:29;;;;;;;7.68;1.70;;;;;;;5.25;100.00;98066.22;5133332;27;20404;-88
2023/01/11 07:12:56;;;;;;;4.15;1.50;;;;;;;5.51;100.00;98095.84;5147208;27;20050;-89
2023/01/11 07:15:23;;;;;;;4.43;1.40;;;;;;;5.18;100.00;98044.16;5129674;27;20133;-89
2023/01/11 07:17:54;;;;;;;5.22;1.30;;;;;;;4.95;100.00;98021.22;5125223;27;20062;-89
2023/01/11 07:20:23;;;;;;;3.28;1.10;;;;;;;5.24;100.00;98073.19;5142612;27;20065;-88
2023/01/11 07:22:50;;;;;;;6.80;1.67;;;;;;;5.24;100.00;98039.44;5130214;27;20395;-87
2023/01/11 07:25:17;;;;;;;6.53;1.40;;;;;;;5.41;100.00;98072.16;5128362;27;20046;-88
2023/01/11 07:27:44;;;;;;;8.80;1.60;;;;;;;5.46;100.00;98057.16;5151800;27;20050;-88
2023/01/11 07:30:11;;;;;;;4.78;1.40;;;;;;;5.59;100.00;98078.03;5133745;27;20039;-88
2023/01/11 07:32:38;;;;;;;4.43;1.33;;;;;;;5.42;100.00;98058.28;5144010;27;20043;-89
2023/01/11 07:35:06;;;;;;;7.05;1.45;;;;;;;5.36;100.00;98058.63;5131620;27;20086;-88
2023/01/11 07:37:36;;;;;;;6.60;1.52;;;;;;;5.78;100.00;98100.31;5130819;27;20096;-88
2023/01/11 07:40:03;;;;;;;6.15;1.33;;;;;;;5.20;100.00;98011.19;5129703;28;20043;-88
2023/01/11 07:45:16;;;;;;;4.30;1.42;;;;;;;5.37;100.00;98041.31;5136722;27;20153;-88
2023/01/11 07:47:42;;;;;;;2.47;1.20;;;;;;;5.84;100.00;98097.31;5135012;27;20057;-88
2023/01/11 07:50:09;;;;;;;3.97;1.30;;;;;;;5.41;100.00;98019.44;5135062;27;20464;-88
2023/01/11 07:52:36;;;;;;;5.40;1.33;;;;;;;5.26;100.00;98035.00;5151687;27;20046;-88
2023/01/11 07:55:03;;;;;;;5.78;1.23;;;;;;;5.66;100.00;98055.13;5152958;27;20059;-88
2023/01/11 07:57:31;;;;;;;5.22;1.20;;;;;;;5.35;100.00;98045.75;5127748;28;20047;-88
2023/01/11 07:59:57;;;;;;;4.85;1.38;;;;;;;5.35;100.00;98031.03;5129415;28;20058;-87
2023/01/11 08:02:24;;;;;;;3.17;1.23;;;;;;;5.34;100.00;98024.16;5133660;27;20058;-88
2023/01/11 08:04:51;;;;;;;7.00;1.67;;;;;;;5.57;100.00;98040.13;5138621;27;20039;-88
2023/01/11 08:07:18;;;;;;;1.60;0.93;;;;;;;5.43;100.00;98033.16;5138874;27;20054;-88
2023/01/11 08:09:44;;;;;;;2.03;1.10;;;;;;;5.62;100.00;98049.28;5138753;27;20373;-88
2023/01/11 08:14:56;;;;;;;2.03;1.10;;;;;;;5.56;100.00;98057.47;5136946;27;20051;-87
2023/01/11 08:17:23;;;;;;;1.92;1.10;;;;;;;5.20;100.00;98017.19;5138517;27;20050;-88
2023/01/11 08:19:50;;;;;;;3.95;1.70;;;;;;;5.62;100.00;98067.47;5156880;27;20054;-88
2023/01/11 08:22:17;;;;;;;4.43;1.10;;;;;;;5.73;100.00;98107.53;5137418;27;20047;-89
2023/01/11 08:24:44;;;;;;;3.38;1.10;;;;;;;5.58;100.00;98053.00;5138657;27;20454;-89
2023/01/11 08:27:10;;;;;;;3.60;2.00;;;;;;;5.68;100.00;98098.28;5138565;27;20062;-89
2023/01/11 08:29:38;;;;;;;1.85;1.13;;;;;;;5.57;100.00;98087.66;5138909;27;20046;-89
2023/01/11 08:32:05;;;;;;;1.42;1.00;;;;;;;5.38;100.00;98082.72;5137873;27;20115;-89
2023/01/11 08:34:33;;;;;;;2.05;1.10;;;;;;;5.57;100.00;98108.44;5127780;27;20395;-89
2023/01/11 08:37:01;;;;;;;2.88;1.10;;;;;;;5.55;100.00;98083.50;5137876;27;20050;-90
2023/01/11 08:39:29;;;;;;;1.80;1.05;;;;;;;5.74;100.00;98106.59;5154864;27;20470;-89
2023/01/11 08:41:57;;;;;;;3.17;1.20;;;;;;;5.40;100.00;98044.56;5134337;27;20096;-89
2023/01/11 08:44:24;;;;;;;1.48;1.00;;;;;;;5.70;100.00;98113.72;5135403;27;20047;-89
2023/01/11 08:47:00;;;;;;;2.30;1.30;;;;;;;5.51;100.00;98083.69;5135231;27;20042;-89
2023/01/11 08:49:26;;;;;;;3.20;1.15;;;;;;;5.77;100.00;98109.88;5138224;27;20046;-88
2023/01/11 08:51:53;;;;;;;3.05;1.10;;;;;;;5.19;100.00;98069.16;5133110;27;20046;-88
2023/01/11 08:54:20;;;;;;;2.30;1.10;;;;;;;5.34;100.00;98096.81;5138295;27;20086;-88
2023/01/11 08:56:47;;;;;;;3.58;1.10;;;;;;;5.61;100.00;98132.44;5138852;27;20047;-89
2023/01/11 08:59:13;;;;;;;2.08;1.10;;;;;;;5.43;100.00;98080.69;5138668;27;20046;-88
2023/01/11 09:01:40;;;;;;;1.33;1.10;;;;;;;5.77;100.00;98153.16;5155442;27;20055;-88
2023/01/11 09:04:07;;;;;;;2.85;1.10;;;;;;;5.71;100.00;98138.78;5137095;27;20043;-88
2023/01/11 09:06:50;;;;;;;2.78;1.13;;;;;;;6.08;100.00;98178.16;5132406;27;20095;-89
2023/01/11 09:09:17;;;;;;;1.45;1.00;;;;;;;6.06;100.00;98135.88;5137836;27;20057;-89
2023/01/11 09:11:52;;;;;;;2.70;1.25;;;;;;;6.02;100.00;98145.63;5135553;27;20042;-88
2023/01/11 09:14:25;;;;;;;3.65;1.10;;;;;;;6.06;100.00;98154.88;5136943;27;20042;-88
2023/01/11 09:16:53;;;;;;;4.05;1.35;;;;;;;6.05;100.00;98167.97;5136872;27;20115;-87
2023/01/11 09:19:20;;;;;;;2.13;1.00;;;;;;;6.05;100.00;98167.97;5137928;27;20056;-89
2023/01/11 09:21:47;;;;;;;3.50;1.30;;;;;;;5.98;100.00;98161.47;5136658;27;20039;-89
2023/01/11 09:24:15;;;;;;;4.47;1.10;;;;;;;5.79;100.00;98139.16;5123297;27;20047;-88
2023/01/11 09:26:42;;;;;;;2.13;1.05;;;;;;;5.82;100.00;98148.53;5137349;27;20054;-88
2023/01/11 09:29:10;;;;;;;1.42;0.90;;;;;;;6.01;100.00;98189.84;5137129;27;20133;-88
2023/01/11 09:31:37;;;;;;;3.10;1.10;;;;;;;6.19;100.00;98195.72;5136553;27;20039;-88
2023/01/11 09:34:05;;;;;;;2.90;1.10;;;;;;;5.96;100.00;98173.72;5137199;27;20372;-88
2023/01/11 09:36:34;;;;;;;4.15;1.25;;;;;;;5.74;100.00;98150.72;5137062;27;20047;-88
2023/01/11 09:39:06;;;;;;;7.90;1.70;;;;;;;5.99;100.00;98182.16;5155181;27;20077;-88
2023/01/11 09:41:49;;;;;;;5.53;1.30;;;;;;;6.23;100.00;98181.59;5154333;27;20047;-88
2023/01/11 09:44:22;;;;;;;4.60;1.50;;;;;;;5.96;100.00;98178.91;5137027;27;20051;-88
2023/01/11 09:46:54;;;;;;;3.43;1.30;;;;;;;5.95;100.00;98178.03;5136902;27;20076;-88
2023/01/11 09:49:27;;;;;;;6.75;1.92;;;;;;;5.97;100.00;98165.84;5144743;27;20039;-88
2023/01/11 09:52:22;;;;;;;6.43;1.73;;;;;;;5.87;100.00;98167.25;5135700;27;20042;-88
2023/01/11 09:54:51;;;;;;;6.70;2.50;;;;;;;6.00;100.00;98172.59;5109272;27;20054;-88
2023/01/11 09:57:31;;;;;;;3.75;1.20;;;;;;;6.06;100.00;98162.69;5120477;27;20047;-88
2023/01/11 10:00:26;;;;;;;4.43;1.58;;;;;;;6.07;100.00;98161.75;5151771;27;20043;-87
2023/01/11 10:03:13;;;;;;;4.28;1.27;;;;;;;6.26;100.00;98155.44;5126322;27;20103;-88
2023/01/11 10:05:58;;;;;;;3.65;1.50;;;;;;;6.26;100.00;98186.63;5155396;27;20066;-89
2023/01/11 10:08:36;;;;;;;5.13;1.25;;;;;;;6.46;100.00;98183.66;5134167;27;20046;-88
2023/01/11 10:11:42;;;;;;;4.00;1.17;;;;;;;6.31;100.00;98192.38;5137598;27;20125;-89
2023/01/11 10:14:59;;;;;;;4.05;1.27;;;;;;;6.34;100.00;98175.75;5153852;27;20043;-89
2023/01/11 10:18:04;;;;;;;3.80;1.42;;;;;;;6.44;100.00;98182.88;5138394;27;20102;-88
2023/01/11 10:21:09;;;;;;;4.25;1.30;;;;;;;6.52;100.00;98172.03;5137510;27;20130;-87
2023/01/11 10:23:57;;;;;;;7.97;2.30;;;;;;;6.69;100.00;98190.94;5141889;27;20046;-87
2023/01/11 10:26:27;;;;;;;6.75;1.60;;;;;;;6.57;100.00;98174.31;5136455;27;20084;-87
2023/01/11 10:32:31;;;;;;;2.35;1.17;;;;;;;6.59;100.00;98170.72;5144121;27;20046;-88
2023/01/11 10:35:03;;;;;;;3.08;1.10;;;;;;;6.80;100.00;98186.75;5151681;27;20046;-89
2023/01/11 10:41:03;;;;;;;4.25;1.20;;;;;;;6.55;100.00;98187.44;5139825;27;20042;-89
2023/01/11 10:43:40;;;;;;;3.85;1.13;;;;;;;6.49;100.00;98129.78;5135108;27;20074;-88
2023/01/11 10:46:15;;;;;;;4.78;1.40;;;;;;;6.63;100.00;98120.19;5117529;27;20054;-89
2023/01/11 10:48:44;;;;;;;5.07;1.30;;;;;;;6.93;100.00;98155.59;5133899;27;20047;-88
2023/01/11 10:51:23;;;;;;;4.65;1.67;;;;;;;6.82;100.00;98160.66;5135068;27;20035;-89
2023/01/11 10:53:53;;;;;;;5.03;1.20;;;;;;;6.97;100.00;98164.84;5122618;27;20047;-88
2023/01/11 10:56:31;;;;;;;9.85;1.88;;;;;;;7.07;100.00;98166.88;5124064;27;20054;-89
2023/01/11 10:59:15;;;;;;;5.93;1.48;;;;;;;6.95;100.00;98151.13;5152094;27;20046;-88
2023/01/11 11:02:01;;;;;;;9.38;2.13;;;;;;;6.71;100.00;98122.31;5135527;27;20484;-89
2023/01/11 11:04:38;;;;;;;6.30;1.48;;;;;;;6.89;100.00;98158.47;5132657;27;20130;-89
2023/01/11 11:07:05;;;;;;;6.80;1.60;;;;;;;7.02;100.00;98170.59;5117616;27;20051;-89
2023/01/11 11:09:34;;;;;;;7.78;1.50;;;;;;;6.97;100.00;98170.06;5155261;27;20046;-89
2023/01/11 11:12:11;;;;;;;9.73;1.70;;;;;;;6.98;100.00;98171.75;5153459;27;20058;-89
2023/01/11 11:14:59;;;;;;;7.15;1.60;;;;;;;6.86;100.00;98153.47;5129573;27;20047;-88
2023/01/11 11:17:43;;;;;;;5.18;1.40;;;;;;;7.26;100.00;98185.59;5129768;27;20100;-88
2023/01/11 11:20:17;;;;;;;6.93;1.77;;;;;;;7.12;100.00;98191.69;5126187;27;20046;-88
2023/01/11 11:22:46;;;;;;;8.18;1.80;;;;;;;6.98;100.00;98184.75;5135677;27;20042;-87
2023/01/11 11:25:18;;;;;;;5.65;1.40;;;;;;;7.19;100.00;98189.53;5144604;27;20123;-89
2023/01/11 11:27:51;;;;;;;6.65;1.55;;;;;;;6.73;100.00;98154.25;5134756;27;20051;-88
2023/01/11 11:30:31;;;;;;;5.25;1.58;;;;;;;6.78;100.00;98183.41;5117362;28;20487;-88
2023/01/11 11:33:01;;;;;;;3.83;1.23;;;;;;;6.79;100.00;98160.84;5135554;27;20142;-88
2023/01/11 11:35:44;;;;;;;5.13;1.48;;;;;;;6.74;100.00;98158.50;5136356;27;20050;-89
2023/01/11 11:38:21;;;;;;;6.25;1.50;;;;;;;6.91;100.00;98167.84;5136386;27;20047;-88
2023/01/11 11:41:11;;;;;;;5.40;1.38;;;;;;;6.98;100.00;98182.16;5146662;27;20039;-88
2023/01/11 11:43:40;;;;;;;3.63;1.25;;;;;;;6.91;100.00;98144.44;5120548;27;20047;-88
2023/01/11 11:46:13;;;;;;;4.47;1.40;;;;;;;7.00;100.00;98197.66;5131094;27;20046;-89
2023/01/11 11:49:12;;;;;;;4.35;1.20;;;;;;;6.80;100.00;98163.34;5140741;27;20047;-88
2023/01/11 11:51:41;;;;;;;4.72;1.20;;;;;;;7.01;100.00;98207.13;5139065;27;20042;-88
2023/01/11 11:54:31;;;;;;;5.40;1.33;;;;;;;7.12;100.00;98209.88;5134068;27;20490;-89
2023/01/11 11:57:20;;;;;;;4.00;1.52;;;;;;;7.12;100.00;98206.44;5158313;27;20051;-89
2023/01/11 12:00:01;;;;;;;3.97;1.20;;;;;;;6.80;100.00;98176.34;5129842;27;20051;-89
2023/01/11 12:02:30;;;;;;;2.92;1.30;;;;;;;7.18;100.00;98196.47;5130630;27;20373;-88
2023/01/11 12:05:03;;;;;;;4.88;1.73;;;;;;;7.16;100.00;98158.47;5119337;27;20122;-90
2023/01/11 12:07:35;;;;;;;3.65;1.27;;;;;;;7.39;100.00;98173.44;5133346;27;20135;-89
2023/01/11 12:10:22;;;;;;;4.05;1.35;;;;;;;6.92;100.00;98143.50;5135461;27;20062;-89
2023/01/11 12:12:55;;;;;;;2.78;1.13;;;;;;;7.22;100.00;98178.88;5138282;27;20047;-90
2023/01/11 12:15:29;;;;;;;3.75;1.52;;;;;;;6.94;100.00;98109.59;5158339;27;20592;-89
2023/01/11 12:18:27;;;;;;;4.45;1.27;;;;;;;7.22;100.00;98140.72;5125166;27;20043;-89
2023/01/11 12:20:54;;;;;;;2.20;1.00;;;;;;;7.27;100.00;98137.78;5139074;27;20070;-90
2023/01/11 12:23:25;;;;;;;2.33;0.95;;;;;;;7.13;100.00;98156.91;5137177;27;20051;-89